sensor_id;sensor_type;location;lat;lon;timestamp;temperature;humidity
29281;DHT22;25048;49.590;11.026;2023-02-15T00:00:08;0.00;99.90
29281;DHT22;25048;49.590;11.026;2023-02-15T00:02:37;0.00;99.90
29281;DHT22;25048;49.590;11.026;2023-02-15T00:05:05;0.10;99.90
29281;DHT22;25048;49.590;11.026;2023-02-15T00:07:33;0.10;99.90
29281;DHT22;25048;49.590;11.026;2023-02-15T00:10:00;0.10;99.90
29281;DHT22;25048;49.590;11.026;2023-02-15T00:12:28;0.10;99.90
29281;DHT22;25048;49.590;11.026;2023-02-15T00:14:56;0.10;99.90
29281;DHT22;25048;49.590;11.026;2023-02-15T00:17:23;0.10;99.90
29281;DHT22;25048;49.590;11.026;2023-02-15T00:19:51;0.00;99.90
29281;DHT22;25048;49.590;11.026;2023-02-15T00:22:19;0.00;99.90
29281;DHT22;25048;49.590;11.026;2023-02-15T00:24:46;0.00;99.90
29281;DHT22;25048;49.590;11.026;2023-02-15T00:27:14;-0.10;99.90
29281;DHT22;25048;49.590;11.026;2023-02-15T00:29:41;0.00;99.90
29281;DHT22;25048;49.590;11.026;2023-02-15T00:32:09;0.00;99.90
29281;DHT22;25048;49.590;11.026;2023-02-15T00:34:36;0.00;99.90
29281;DHT22;25048;49.590;11.026;2023-02-15T00:37:04;-0.10;99.90
29281;DHT22;25048;49.590;11.026;2023-02-15T00:39:31;-0.10;99.90
29281;DHT22;25048;49.590;11.026;2023-02-15T00:41:59;-0.10;99.90
29281;DHT22;25048;49.590;11.026;2023-02-15T00:44:26;-0.10;99.90
29281;DHT22;25048;49.590;11.026;2023-02-15T00:46:54;0.00;99.90
29281;DHT22;25048;49.590;11.026;2023-02-15T00:49:21;-0.10;99.90
29281;DHT22;25048;49.590;11.026;2023-02-15T00:51:49;-0.10;99.90
29281;DHT22;25048;49.590;11.026;2023-02-15T00:54:16;-0.10;99.90
29281;DHT22;25048;49.590;11.026;2023-02-15T00:56:44;-0.10;99.90
29281;DHT22;25048;49.590;11.026;2023-02-15T00:59:11;-0.10;99.90
29281;DHT22;25048;49.590;11.026;2023-02-15T01:01:39;0.00;99.90
29281;DHT22;25048;49.590;11.026;2023-02-15T01:04:06;0.00;99.90
29281;DHT22;25048;49.590;11.026;2023-02-15T01:06:34;0.00;99.90
29281;DHT22;25048;49.590;11.026;2023-02-15T01:09:01;-0.10;99.90
29281;DHT22;25048;49.590;11.026;2023-02-15T01:11:29;-0.10;99.90
29281;DHT22;25048;49.590;11.026;2023-02-15T01:13:57;0.00;99.90
29281;DHT22;25048;49.590;11.026;2023-02-15T01:16:26;-0.10;99.90
29281;DHT22;25048;49.590;11.026;2023-02-15T01:18:55;0.00;99.90
29281;DHT22;25048;49.590;11.026;2023-02-15T01:21:24;0.00;99.90
29281;DHT22;25048;49.590;11.026;2023-02-15T01:23:52;0.00;99.90
29281;DHT22;25048;49.590;11.026;2023-02-15T01:26:20;0.00;99.90
29281;DHT22;25048;49.590;11.026;2023-02-15T01:28:48;-0.10;99.90
29281;DHT22;25048;49.590;11.026;2023-02-15T01:31:17;-0.10;99.90
29281;DHT22;25048;49.590;11.026;2023-02-15T01:33:48;-0.10;99.90
29281;DHT22;25048;49.590;11.026;2023-02-15T01:36:15;-0.10;99.90
29281;DHT22;25048;49.590;11.026;2023-02-15T01:38:44;-0.10;99.90
29281;DHT22;25048;49.590;11.026;2023-02-15T01:41:11;-0.10;99.90
29281;DHT22;25048;49.590;11.026;2023-02-15T01:43:58;-0.10;99.90
29281;DHT22;25048;49.590;11.026;2023-02-15T01:46:34;-0.20;99.90
29281;DHT22;25048;49.590;11.026;2023-02-15T01:49:16;-0.10;99.90
29281;DHT22;25048;49.590;11.026;2023-02-15T01:51:46;-0.10;99.90
29281;DHT22;25048;49.590;11.026;2023-02-15T01:54:25;-0.10;99.90
29281;DHT22;25048;49.590;11.026;2023-02-15T01:56:50;-0.20;99.90
29281;DHT22;25048;49.590;11.026;2023-02-15T01:59:20;-0.10;99.90
29281;DHT22;25048;49.590;11.026;2023-02-15T02:01:49;-0.20;99.90
29281;DHT22;25048;49.590;11.026;2023-02-15T02:04:39;-0.20;99.90
29281;DHT22;25048;49.590;11.026;2023-02-15T02:06:52;-0.30;99.90
29281;DHT22;25048;49.590;11.026;2023-02-15T02:09:20;-0.30;99.90
29281;DHT22;25048;49.590;11.026;2023-02-15T02:11:48;-0.20;99.90
29281;DHT22;25048;49.590;11.026;2023-02-15T02:14:16;-0.20;99.90
29281;DHT22;25048;49.590;11.026;2023-02-15T02:17:00;-0.30;99.90
29281;DHT22;25048;49.590;11.026;2023-02-15T02:22:42;-0.30;99.90
29281;DHT22;25048;49.590;11.026;2023-02-15T02:35:50;-0.30;99.90
29281;DHT22;25048;49.590;11.026;2023-02-15T02:41:24;-0.30;99.90
29281;DHT22;25048;49.590;11.026;2023-02-15T02:43:59;-0.40;99.90
29281;DHT22;25048;49.590;11.026;2023-02-15T02:46:33;-0.40;99.90
29281;DHT22;25048;49.590;11.026;2023-02-15T02:48:58;-0.50;99.90
29281;DHT22;25048;49.590;11.026;2023-02-15T02:51:26;-0.40;99.90
29281;DHT22;25048;49.590;11.026;2023-02-15T02:53:56;-0.50;99.90
29281;DHT22;25048;49.590;11.026;2023-02-15T02:56:29;-0.50;99.90
29281;DHT22;25048;49.590;11.026;2023-02-15T02:59:10;-0.50;99.90
29281;DHT22;25048;49.590;11.026;2023-02-15T03:01:34;-0.50;99.90
29281;DHT22;25048;49.590;11.026;2023-02-15T03:04:16;-0.60;99.90
29281;DHT22;25048;49.590;11.026;2023-02-15T03:06:57;-0.60;99.90
29281;DHT22;25048;49.590;11.026;2023-02-15T03:09:25;-0.60;99.90
29281;DHT22;25048;49.590;11.026;2023-02-15T03:11:56;-0.60;99.90
29281;DHT22;25048;49.590;11.026;2023-02-15T03:14:24;-0.60;99.90
29281;DHT22;25048;49.590;11.026;2023-02-15T03:16:52;-0.50;99.90
29281;DHT22;25048;49.590;11.026;2023-02-15T03:19:22;-0.50;99.90
29281;DHT22;25048;49.590;11.026;2023-02-15T03:21:53;-0.50;99.90
29281;DHT22;25048;49.590;11.026;2023-02-15T03:24:32;-0.50;99.90
29281;DHT22;25048;49.590;11.026;2023-02-15T03:26:59;-0.50;99.90
29281;DHT22;25048;49.590;11.026;2023-02-15T03:29:28;-0.50;99.90
29281;DHT22;25048;49.590;11.026;2023-02-15T03:31:59;-0.50;99.90
29281;DHT22;25048;49.590;11.026;2023-02-15T03:34:28;-0.50;99.90
29281;DHT22;25048;49.590;11.026;2023-02-15T03:37:14;-0.50;99.90
29281;DHT22;25048;49.590;11.026;2023-02-15T03:42:16;-0.50;99.90
29281;DHT22;25048;49.590;11.026;2023-02-15T03:45:01;-0.50;99.90
29281;DHT22;25048;49.590;11.026;2023-02-15T03:47:31;-0.50;99.90
29281;DHT22;25048;49.590;11.026;2023-02-15T03:50:11;-0.50;99.90
29281;DHT22;25048;49.590;11.026;2023-02-15T03:52:58;-0.50;99.90
29281;DHT22;25048;49.590;11.026;2023-02-15T03:55:27;-0.50;99.90
29281;DHT22;25048;49.590;11.026;2023-02-15T03:57:55;-0.60;99.90
29281;DHT22;25048;49.590;11.026;2023-02-15T04:00:44;-0.60;99.90
29281;DHT22;25048;49.590;11.026;2023-02-15T04:03:39;-0.50;99.90
29281;DHT22;25048;49.590;11.026;2023-02-15T04:06:03;-0.50;99.90
29281;DHT22;25048;49.590;11.026;2023-02-15T04:08:31;-0.60;99.90
29281;DHT22;25048;49.590;11.026;2023-02-15T04:11:16;-0.60;99.90
29281;DHT22;25048;49.590;11.026;2023-02-15T04:13:44;-0.60;99.90
29281;DHT22;25048;49.590;11.026;2023-02-15T04:16:11;-0.60;99.90
29281;DHT22;25048;49.590;11.026;2023-02-15T04:18:42;-0.60;99.90
29281;DHT22;25048;49.590;11.026;2023-02-15T04:21:29;-0.70;99.90
29281;DHT22;25048;49.590;11.026;2023-02-15T04:24:15;-0.70;99.90
29281;DHT22;25048;49.590;11.026;2023-02-15T04:27:02;-0.70;99.90
29281;DHT22;25048;49.590;11.026;2023-02-15T04:29:30;-0.70;99.90
29281;DHT22;25048;49.590;11.026;2023-02-15T04:31:59;-0.70;99.90
29281;DHT22;25048;49.590;11.026;2023-02-15T04:34:28;-0.60;99.90
29281;DHT22;25048;49.590;11.026;2023-02-15T04:36:55;-0.60;99.90
29281;DHT22;25048;49.590;11.026;2023-02-15T04:39:23;-0.60;99.90
29281;DHT22;25048;49.590;11.026;2023-02-15T04:41:50;-0.50;99.90
29281;DHT22;25048;49.590;11.026;2023-02-15T04:44:18;-0.50;99.90
29281;DHT22;25048;49.590;11.026;2023-02-15T04:46:45;-0.50;99.90
29281;DHT22;25048;49.590;11.026;2023-02-15T04:49:13;-0.60;99.90
29281;DHT22;25048;49.590;11.026;2023-02-15T04:51:40;-0.60;99.90
29281;DHT22;25048;49.590;11.026;2023-02-15T04:54:08;-0.50;99.90
29281;DHT22;25048;49.590;11.026;2023-02-15T04:56:35;-0.50;99.90
29281;DHT22;25048;49.590;11.026;2023-02-15T04:59:04;-0.60;99.90
29281;DHT22;25048;49.590;11.026;2023-02-15T05:01:31;-0.60;99.90
29281;DHT22;25048;49.590;11.026;2023-02-15T05:03:59;-0.60;99.90
29281;DHT22;25048;49.590;11.026;2023-02-15T05:06:26;-0.60;99.90
29281;DHT22;25048;49.590;11.026;2023-02-15T05:08:54;-0.60;99.90
29281;DHT22;25048;49.590;11.026;2023-02-15T05:11:22;-0.60;99.90
29281;DHT22;25048;49.590;11.026;2023-02-15T05:13:49;-0.60;99.90
29281;DHT22;25048;49.590;11.026;2023-02-15T05:16:17;-0.60;99.90
29281;DHT22;25048;49.590;11.026;2023-02-15T05:18:44;-0.70;99.90
29281;DHT22;25048;49.590;11.026;2023-02-15T05:21:12;-0.70;99.90
29281;DHT22;25048;49.590;11.026;2023-02-15T05:23:40;-0.70;99.90
29281;DHT22;25048;49.590;11.026;2023-02-15T05:26:15;-0.80;99.90
29281;DHT22;25048;49.590;11.026;2023-02-15T05:28:56;-0.70;99.90
29281;DHT22;25048;49.590;11.026;2023-02-15T05:31:24;-0.80;99.90
29281;DHT22;25048;49.590;11.026;2023-02-15T05:33:51;-0.80;99.90
29281;DHT22;25048;49.590;11.026;2023-02-15T05:36:19;-0.80;99.90
29281;DHT22;25048;49.590;11.026;2023-02-15T05:38:46;-0.80;99.90
29281;DHT22;25048;49.590;11.026;2023-02-15T05:41:14;-0.80;99.90
29281;DHT22;25048;49.590;11.026;2023-02-15T05:43:42;-0.80;99.90
29281;DHT22;25048;49.590;11.026;2023-02-15T05:46:09;-0.80;99.90
29281;DHT22;25048;49.590;11.026;2023-02-15T05:48:37;-0.70;99.90
29281;DHT22;25048;49.590;11.026;2023-02-15T05:51:12;-0.70;99.90
29281;DHT22;25048;49.590;11.026;2023-02-15T05:53:42;-0.70;99.90
29281;DHT22;25048;49.590;11.026;2023-02-15T05:56:10;-0.70;99.90
29281;DHT22;25048;49.590;11.026;2023-02-15T05:58:40;-0.70;99.90
29281;DHT22;25048;49.590;11.026;2023-02-15T06:01:12;-0.70;99.90
29281;DHT22;25048;49.590;11.026;2023-02-15T06:03:40;-0.70;99.90
29281;DHT22;25048;49.590;11.026;2023-02-15T06:06:08;-0.80;99.90
29281;DHT22;25048;49.590;11.026;2023-02-15T06:08:37;-0.80;99.90
29281;DHT22;25048;49.590;11.026;2023-02-15T06:11:05;-0.90;99.90
29281;DHT22;25048;49.590;11.026;2023-02-15T06:13:33;-0.90;99.90
29281;DHT22;25048;49.590;11.026;2023-02-15T06:16:01;-0.90;99.90
29281;DHT22;25048;49.590;11.026;2023-02-15T06:18:28;-0.90;99.90
29281;DHT22;25048;49.590;11.026;2023-02-15T06:20:56;-0.90;99.90
29281;DHT22;25048;49.590;11.026;2023-02-15T06:23:23;-0.90;99.90
29281;DHT22;25048;49.590;11.026;2023-02-15T06:25:51;-0.80;99.90
29281;DHT22;25048;49.590;11.026;2023-02-15T06:28:18;-0.90;99.90
29281;DHT22;25048;49.590;11.026;2023-02-15T06:30:46;-0.90;99.90
29281;DHT22;25048;49.590;11.026;2023-02-15T06:33:14;-0.90;99.90
29281;DHT22;25048;49.590;11.026;2023-02-15T06:35:41;-0.90;99.90
29281;DHT22;25048;49.590;11.026;2023-02-15T06:38:09;-0.90;99.90
29281;DHT22;25048;49.590;11.026;2023-02-15T06:40:36;-0.90;99.90
29281;DHT22;25048;49.590;11.026;2023-02-15T06:43:04;-0.90;99.90
29281;DHT22;25048;49.590;11.026;2023-02-15T06:45:32;-0.90;99.90
29281;DHT22;25048;49.590;11.026;2023-02-15T06:47:59;-0.80;99.90
29281;DHT22;25048;49.590;11.026;2023-02-15T06:50:26;-0.80;99.90
29281;DHT22;25048;49.590;11.026;2023-02-15T06:52:58;-0.70;99.90
29281;DHT22;25048;49.590;11.026;2023-02-15T06:55:26;-0.70;99.90
29281;DHT22;25048;49.590;11.026;2023-02-15T06:57:53;-0.70;99.90
29281;DHT22;25048;49.590;11.026;2023-02-15T07:00:21;-0.70;99.90
29281;DHT22;25048;49.590;11.026;2023-02-15T07:02:54;-0.70;99.90
29281;DHT22;25048;49.590;11.026;2023-02-15T07:05:22;-0.60;99.90
29281;DHT22;25048;49.590;11.026;2023-02-15T07:07:50;-0.60;99.90
29281;DHT22;25048;49.590;11.026;2023-02-15T07:10:18;-0.60;99.90
29281;DHT22;25048;49.590;11.026;2023-02-15T07:12:45;-0.60;99.90
29281;DHT22;25048;49.590;11.026;2023-02-15T07:15:16;-0.70;99.90
29281;DHT22;25048;49.590;11.026;2023-02-15T07:17:44;-0.70;99.90
29281;DHT22;25048;49.590;11.026;2023-02-15T07:20:14;-0.70;99.90
29281;DHT22;25048;49.590;11.026;2023-02-15T07:22:43;-0.70;99.90
29281;DHT22;25048;49.590;11.026;2023-02-15T07:25:12;-0.70;99.90
29281;DHT22;25048;49.590;11.026;2023-02-15T07:27:40;-0.70;99.90
29281;DHT22;25048;49.590;11.026;2023-02-15T07:30:10;-0.70;99.90
29281;DHT22;25048;49.590;11.026;2023-02-15T07:32:38;-0.60;99.90
29281;DHT22;25048;49.590;11.026;2023-02-15T07:35:07;-0.60;99.90
29281;DHT22;25048;49.590;11.026;2023-02-15T07:37:34;-0.60;99.90
29281;DHT22;25048;49.590;11.026;2023-02-15T07:40:02;-0.50;99.90
29281;DHT22;25048;49.590;11.026;2023-02-15T07:42:31;-0.50;99.90
29281;DHT22;25048;49.590;11.026;2023-02-15T07:44:58;-0.40;99.90
29281;DHT22;25048;49.590;11.026;2023-02-15T07:47:27;-0.40;99.90
29281;DHT22;25048;49.590;11.026;2023-02-15T07:49:54;-0.30;99.90
29281;DHT22;25048;49.590;11.026;2023-02-15T07:52:22;-0.30;99.90
29281;DHT22;25048;49.590;11.026;2023-02-15T07:54:49;-0.30;99.90
29281;DHT22;25048;49.590;11.026;2023-02-15T07:57:16;-0.20;99.90
29281;DHT22;25048;49.590;11.026;2023-02-15T07:59:44;-0.20;99.90
29281;DHT22;25048;49.590;11.026;2023-02-15T08:02:14;-0.10;99.90
29281;DHT22;25048;49.590;11.026;2023-02-15T08:04:41;-0.10;99.90
29281;DHT22;25048;49.590;11.026;2023-02-15T08:07:08;-0.10;99.90
29281;DHT22;25048;49.590;11.026;2023-02-15T08:09:36;-0.10;99.90
29281;DHT22;25048;49.590;11.026;2023-02-15T08:12:03;-0.10;99.90
29281;DHT22;25048;49.590;11.026;2023-02-15T08:14:31;-0.10;99.90
29281;DHT22;25048;49.590;11.026;2023-02-15T08:17:00;0.00;99.90
29281;DHT22;25048;49.590;11.026;2023-02-15T08:19:32;0.00;99.90
29281;DHT22;25048;49.590;11.026;2023-02-15T08:22:06;0.00;99.90
29281;DHT22;25048;49.590;11.026;2023-02-15T08:24:36;0.00;99.90
29281;DHT22;25048;49.590;11.026;2023-02-15T08:27:05;0.10;99.90
29281;DHT22;25048;49.590;11.026;2023-02-15T08:29:34;0.00;99.90
29281;DHT22;25048;49.590;11.026;2023-02-15T08:32:07;0.10;99.90
29281;DHT22;25048;49.590;11.026;2023-02-15T08:34:38;0.10;99.90
29281;DHT22;25048;49.590;11.026;2023-02-15T08:37:05;0.20;99.90
29281;DHT22;25048;49.590;11.026;2023-02-15T08:39:33;0.30;99.90
29281;DHT22;25048;49.590;11.026;2023-02-15T08:42:02;0.30;99.90
29281;DHT22;25048;49.590;11.026;2023-02-15T08:44:30;0.30;99.90
29281;DHT22;25048;49.590;11.026;2023-02-15T08:46:57;0.30;99.90
29281;DHT22;25048;49.590;11.026;2023-02-15T08:49:26;0.40;99.90
29281;DHT22;25048;49.590;11.026;2023-02-15T08:51:54;0.40;99.90
29281;DHT22;25048;49.590;11.026;2023-02-15T08:54:21;0.50;99.90
29281;DHT22;25048;49.590;11.026;2023-02-15T08:56:49;0.50;99.90
29281;DHT22;25048;49.590;11.026;2023-02-15T08:59:19;0.60;99.90
29281;DHT22;25048;49.590;11.026;2023-02-15T09:01:48;0.60;99.90
29281;DHT22;25048;49.590;11.026;2023-02-15T09:04:17;0.60;99.90
29281;DHT22;25048;49.590;11.026;2023-02-15T09:06:46;0.60;99.90
29281;DHT22;25048;49.590;11.026;2023-02-15T09:09:14;0.70;99.90
29281;DHT22;25048;49.590;11.026;2023-02-15T09:11:43;0.80;99.90
29281;DHT22;25048;49.590;11.026;2023-02-15T09:14:18;0.70;99.90
29281;DHT22;25048;49.590;11.026;2023-02-15T09:16:44;0.70;99.90
29281;DHT22;25048;49.590;11.026;2023-02-15T09:19:14;0.80;99.90
29281;DHT22;25048;49.590;11.026;2023-02-15T09:21:41;0.80;99.90
29281;DHT22;25048;49.590;11.026;2023-02-15T09:24:11;0.80;99.90
29281;DHT22;25048;49.590;11.026;2023-02-15T09:26:42;0.70;99.90
29281;DHT22;25048;49.590;11.026;2023-02-15T09:29:11;0.70;99.90
29281;DHT22;25048;49.590;11.026;2023-02-15T09:31:41;0.80;99.90
29281;DHT22;25048;49.590;11.026;2023-02-15T09:34:14;0.80;99.90
29281;DHT22;25048;49.590;11.026;2023-02-15T09:36:44;0.80;99.90
29281;DHT22;25048;49.590;11.026;2023-02-15T09:39:21;0.90;99.90
29281;DHT22;25048;49.590;11.026;2023-02-15T09:42:06;0.90;99.90
29281;DHT22;25048;49.590;11.026;2023-02-15T09:45:13;1.10;99.90
29281;DHT22;25048;49.590;11.026;2023-02-15T09:50:17;1.40;99.90
29281;DHT22;25048;49.590;11.026;2023-02-15T09:55:53;1.50;99.90
29281;DHT22;25048;49.590;11.026;2023-02-15T10:01:13;1.80;99.90
29281;DHT22;25048;49.590;11.026;2023-02-15T10:06:42;2.00;99.90
29281;DHT22;25048;49.590;11.026;2023-02-15T10:09:34;2.10;99.90
29281;DHT22;25048;49.590;11.026;2023-02-15T10:12:31;2.20;99.90
29281;DHT22;25048;49.590;11.026;2023-02-15T10:20:55;2.40;99.90
29281;DHT22;25048;49.590;11.026;2023-02-15T10:26:21;2.40;99.90
29281;DHT22;25048;49.590;11.026;2023-02-15T10:29:09;2.50;99.90
29281;DHT22;25048;49.590;11.026;2023-02-15T10:31:52;2.70;99.90
29281;DHT22;25048;49.590;11.026;2023-02-15T10:34:36;3.00;99.90
29281;DHT22;25048;49.590;11.026;2023-02-15T10:39:57;3.30;99.90
29281;DHT22;25048;49.590;11.026;2023-02-15T10:48:06;3.40;99.90
29281;DHT22;25048;49.590;11.026;2023-02-15T10:50:55;3.40;99.90
29281;DHT22;25048;49.590;11.026;2023-02-15T10:53:49;3.40;99.90
29281;DHT22;25048;49.590;11.026;2023-02-15T10:56:43;3.50;99.90
29281;DHT22;25048;49.590;11.026;2023-02-15T10:59:30;3.50;99.90
29281;DHT22;25048;49.590;11.026;2023-02-15T11:02:01;3.90;99.90
29281;DHT22;25048;49.590;11.026;2023-02-15T11:07:02;4.70;99.90
29281;DHT22;25048;49.590;11.026;2023-02-15T11:09:42;5.00;99.90
29281;DHT22;25048;49.590;11.026;2023-02-15T11:12:12;5.10;99.90
29281;DHT22;25048;49.590;11.026;2023-02-15T11:15:04;5.20;99.90
29281;DHT22;25048;49.590;11.026;2023-02-15T11:17:34;5.30;99.90
29281;DHT22;25048;49.590;11.026;2023-02-15T11:22:33;5.50;99.90
29281;DHT22;25048;49.590;11.026;2023-02-15T11:25:04;5.70;99.90
29281;DHT22;25048;49.590;11.026;2023-02-15T11:27:32;5.90;99.90
29281;DHT22;25048;49.590;11.026;2023-02-15T11:30:10;6.00;99.90
29281;DHT22;25048;49.590;11.026;2023-02-15T11:32:44;6.00;99.90
29281;DHT22;25048;49.590;11.026;2023-02-15T11:38:17;6.70;99.90
29281;DHT22;25048;49.590;11.026;2023-02-15T11:40:49;6.80;99.90
29281;DHT22;25048;49.590;11.026;2023-02-15T11:46:04;6.80;99.90
29281;DHT22;25048;49.590;11.026;2023-02-15T11:48:32;7.00;99.90
29281;DHT22;25048;49.590;11.026;2023-02-15T11:51:01;7.20;99.90
29281;DHT22;25048;49.590;11.026;2023-02-15T11:53:35;7.40;99.90
29281;DHT22;25048;49.590;11.026;2023-02-15T11:56:04;7.60;99.90
29281;DHT22;25048;49.590;11.026;2023-02-15T11:58:38;7.50;99.90
29281;DHT22;25048;49.590;11.026;2023-02-15T12:04:06;7.50;99.90
29281;DHT22;25048;49.590;11.026;2023-02-15T12:06:37;7.40;99.90
29281;DHT22;25048;49.590;11.026;2023-02-15T12:11:41;7.30;99.90
29281;DHT22;25048;49.590;11.026;2023-02-15T12:14:11;7.20;99.90
29281;DHT22;25048;49.590;11.026;2023-02-15T12:16:50;7.20;99.90
29281;DHT22;25048;49.590;11.026;2023-02-15T12:19:31;7.20;99.90
29281;DHT22;25048;49.590;11.026;2023-02-15T12:21:55;7.40;99.90
29281;DHT22;25048;49.590;11.026;2023-02-15T12:24:36;7.40;99.90
29281;DHT22;25048;49.590;11.026;2023-02-15T12:32:25;7.80;99.90
29281;DHT22;25048;49.590;11.026;2023-02-15T12:35:40;8.00;99.90
29281;DHT22;25048;49.590;11.026;2023-02-15T12:37:30;8.00;99.90
29281;DHT22;25048;49.590;11.026;2023-02-15T12:42:44;8.10;99.90
29281;DHT22;25048;49.590;11.026;2023-02-15T12:45:32;8.30;99.90
29281;DHT22;25048;49.590;11.026;2023-02-15T12:48:15;8.40;99.90
29281;DHT22;25048;49.590;11.026;2023-02-15T12:50:46;8.50;99.90
29281;DHT22;25048;49.590;11.026;2023-02-15T12:53:23;8.90;99.90
29281;DHT22;25048;49.590;11.026;2023-02-15T12:55:58;9.40;99.90
29281;DHT22;25048;49.590;11.026;2023-02-15T12:58:28;9.80;99.90
29281;DHT22;25048;49.590;11.026;2023-02-15T13:04:16;10.50;99.90
29281;DHT22;25048;49.590;11.026;2023-02-15T13:06:17;10.50;99.90
29281;DHT22;25048;49.590;11.026;2023-02-15T13:08:50;10.70;99.90
29281;DHT22;25048;49.590;11.026;2023-02-15T13:11:27;10.90;99.90
29281;DHT22;25048;49.590;11.026;2023-02-15T13:14:01;10.90;99.90
29281;DHT22;25048;49.590;11.026;2023-02-15T13:16:37;10.40;99.90
29281;DHT22;25048;49.590;11.026;2023-02-15T13:19:18;10.00;99.90
29281;DHT22;25048;49.590;11.026;2023-02-15T13:21:51;9.80;99.90
29281;DHT22;25048;49.590;11.026;2023-02-15T13:24:44;9.80;99.90
29281;DHT22;25048;49.590;11.026;2023-02-15T13:26:50;10.00;99.90
29281;DHT22;25048;49.590;11.026;2023-02-15T13:29:25;10.30;99.90
29281;DHT22;25048;49.590;11.026;2023-02-15T13:31:54;10.40;99.90
29281;DHT22;25048;49.590;11.026;2023-02-15T13:34:32;10.50;99.90
29281;DHT22;25048;49.590;11.026;2023-02-15T13:37:05;10.90;99.90
29281;DHT22;25048;49.590;11.026;2023-02-15T13:40:40;10.90;99.90
29281;DHT22;25048;49.590;11.026;2023-02-15T13:42:36;11.00;99.90
29281;DHT22;25048;49.590;11.026;2023-02-15T13:51:00;12.90;99.90
29281;DHT22;25048;49.590;11.026;2023-02-15T13:56:02;13.50;99.90
29281;DHT22;25048;49.590;11.026;2023-02-15T14:01:34;13.90;99.90
29281;DHT22;25048;49.590;11.026;2023-02-15T14:04:15;14.30;99.90
29281;DHT22;25048;49.590;11.026;2023-02-15T14:06:53;14.40;99.00
29281;DHT22;25048;49.590;11.026;2023-02-15T14:09:30;14.70;98.70
29281;DHT22;25048;49.590;11.026;2023-02-15T14:12:27;14.90;97.20
29281;DHT22;25048;49.590;11.026;2023-02-15T14:17:51;14.50;96.50
29281;DHT22;25048;49.590;11.026;2023-02-15T14:23:21;14.10;97.30
29281;DHT22;25048;49.590;11.026;2023-02-15T14:25:51;14.30;96.80
29281;DHT22;25048;49.590;11.026;2023-02-15T14:28:34;14.50;96.20
29281;DHT22;25048;49.590;11.026;2023-02-15T14:31:03;14.80;96.30
29281;DHT22;25048;49.590;11.026;2023-02-15T14:33:37;15.30;95.50
29281;DHT22;25048;49.590;11.026;2023-02-15T14:36:09;15.80;94.60
29281;DHT22;25048;49.590;11.026;2023-02-15T14:39:00;16.10;93.40
29281;DHT22;25048;49.590;11.026;2023-02-15T14:41:48;16.40;92.20
29281;DHT22;25048;49.590;11.026;2023-02-15T14:49:44;17.50;90.10
29281;DHT22;25048;49.590;11.026;2023-02-15T14:52:12;18.20;86.20
29281;DHT22;25048;49.590;11.026;2023-02-15T14:54:52;18.60;84.40
29281;DHT22;25048;49.590;11.026;2023-02-15T14:59:56;18.30;81.20
29281;DHT22;25048;49.590;11.026;2023-02-15T15:05:37;17.90;80.60
29281;DHT22;25048;49.590;11.026;2023-02-15T15:08:02;17.70;81.10
29281;DHT22;25048;49.590;11.026;2023-02-15T15:10:37;17.50;81.50
29281;DHT22;25048;49.590;11.026;2023-02-15T15:15:55;17.20;80.50
29281;DHT22;25048;49.590;11.026;2023-02-15T15:18:49;16.90;82.10
29281;DHT22;25048;49.590;11.026;2023-02-15T15:24:00;16.40;81.60
29281;DHT22;25048;49.590;11.026;2023-02-15T15:26:30;14.50;85.10
29281;DHT22;25048;49.590;11.026;2023-02-15T15:29:00;12.80;90.10
29281;DHT22;25048;49.590;11.026;2023-02-15T15:31:49;11.20;92.70
29281;DHT22;25048;49.590;11.026;2023-02-15T15:37:36;9.00;97.20
29281;DHT22;25048;49.590;11.026;2023-02-15T15:40:21;8.30;99.70
29281;DHT22;25048;49.590;11.026;2023-02-15T15:45:37;7.20;99.90
29281;DHT22;25048;49.590;11.026;2023-02-15T15:48:24;6.80;99.90
29281;DHT22;25048;49.590;11.026;2023-02-15T15:50:53;6.50;99.90
29281;DHT22;25048;49.590;11.026;2023-02-15T15:53:24;6.20;99.90
29281;DHT22;25048;49.590;11.026;2023-02-15T15:55:55;6.00;99.90
29281;DHT22;25048;49.590;11.026;2023-02-15T15:58:22;5.80;99.90
29281;DHT22;25048;49.590;11.026;2023-02-15T16:00:58;5.60;99.90
29281;DHT22;25048;49.590;11.026;2023-02-15T16:03:27;5.40;99.90
29281;DHT22;25048;49.590;11.026;2023-02-15T16:05:56;5.20;99.90
29281;DHT22;25048;49.590;11.026;2023-02-15T16:08:37;5.00;99.90
29281;DHT22;25048;49.590;11.026;2023-02-15T16:11:21;4.90;99.90
29281;DHT22;25048;49.590;11.026;2023-02-15T16:13:44;4.70;99.90
29281;DHT22;25048;49.590;11.026;2023-02-15T16:16:13;4.50;99.90
29281;DHT22;25048;49.590;11.026;2023-02-15T16:18:42;4.40;99.90
29281;DHT22;25048;49.590;11.026;2023-02-15T16:21:22;4.20;99.90
29281;DHT22;25048;49.590;11.026;2023-02-15T16:24:14;4.00;99.90
29281;DHT22;25048;49.590;11.026;2023-02-15T16:27:03;3.80;99.90
29281;DHT22;25048;49.590;11.026;2023-02-15T16:29:18;3.60;99.90
29281;DHT22;25048;49.590;11.026;2023-02-15T16:32:00;3.40;99.90
29281;DHT22;25048;49.590;11.026;2023-02-15T16:34:28;3.20;99.90
29281;DHT22;25048;49.590;11.026;2023-02-15T16:37:17;3.00;99.90
29281;DHT22;25048;49.590;11.026;2023-02-15T16:39:46;2.90;99.90
29281;DHT22;25048;49.590;11.026;2023-02-15T16:42:15;2.70;99.90
29281;DHT22;25048;49.590;11.026;2023-02-15T16:44:45;2.60;99.90
29281;DHT22;25048;49.590;11.026;2023-02-15T16:47:22;2.50;99.90
29281;DHT22;25048;49.590;11.026;2023-02-15T16:49:51;2.30;99.90
29281;DHT22;25048;49.590;11.026;2023-02-15T16:52:22;2.20;99.90
29281;DHT22;25048;49.590;11.026;2023-02-15T16:54:56;2.00;99.90
29281;DHT22;25048;49.590;11.026;2023-02-15T16:57:27;1.90;99.90
29281;DHT22;25048;49.590;11.026;2023-02-15T16:59:58;1.80;99.90
29281;DHT22;25048;49.590;11.026;2023-02-15T17:02:28;1.70;99.90
29281;DHT22;25048;49.590;11.026;2023-02-15T17:05:10;1.70;99.90
29281;DHT22;25048;49.590;11.026;2023-02-15T17:07:40;1.60;99.90
29281;DHT22;25048;49.590;11.026;2023-02-15T17:10:30;1.60;99.90
29281;DHT22;25048;49.590;11.026;2023-02-15T17:13:00;1.50;99.90
29281;DHT22;25048;49.590;11.026;2023-02-15T17:15:38;1.30;99.90
29281;DHT22;25048;49.590;11.026;2023-02-15T17:18:18;1.10;99.90
29281;DHT22;25048;49.590;11.026;2023-02-15T17:20:48;0.90;99.90
29281;DHT22;25048;49.590;11.026;2023-02-15T17:23:40;0.70;99.90
29281;DHT22;25048;49.590;11.026;2023-02-15T17:26:20;0.60;99.90
29281;DHT22;25048;49.590;11.026;2023-02-15T17:28:57;0.50;99.90
29281;DHT22;25048;49.590;11.026;2023-02-15T17:31:30;0.40;99.90
29281;DHT22;25048;49.590;11.026;2023-02-15T17:33:56;0.30;99.90
29281;DHT22;25048;49.590;11.026;2023-02-15T17:36:26;0.20;99.90
29281;DHT22;25048;49.590;11.026;2023-02-15T17:39:01;0.10;99.90
29281;DHT22;25048;49.590;11.026;2023-02-15T17:41:31;0.00;99.90
29281;DHT22;25048;49.590;11.026;2023-02-15T17:44:01;-0.10;99.90
29281;DHT22;25048;49.590;11.026;2023-02-15T17:46:35;-0.20;99.90